Aérodrome :
LOGIN :

S'inscrire | Disclaimer

   EN    FR    IT 

 










Légende :    VFR   VFR Marginal   IFR   IFR Intensif   IFR Très Intensif
Visi : 
Plafond : 
>= 8 km
>= 3000ft
5 à 8 km
1000 à 3000 ft
1500m à 5 km
500 à 1000 ft
800 à 1500m
200 à 500 ft
< 800m
< 200 ft
Symboles :   Orages  Brouillard  Fortes neiges  Fortes précipitations  Vent > 20 kt
SIGMETs :   Divers  Orages  Givrage  Turbulence  Onde Orograph.  Cendres Volcan.






- Altitude de l'aérodrome : 74 ft
- Code IATA : EIN


EHEH - Eindhoven

DERNIER METAR :
  • 161820Z AUTO 28016KT 230V330 8000 -RA FEW011 SCT014 BKN016 09/07 Q1001 GRN 28020G35KT 8000 -RA FEW012 SCT015 OVC025 TEMPO 28022G40KT 4500 RA SHRA FEW010 SCT015CB BKN020

METARs EXPIRÉS :
  • 161804Z AUTO 29018G30KT 250V350 6000 -SHRA FEW000 SCT014 BKN015CB 09/08 Q1000 GRN 28027G40KT 9999 FEW025 BKN032 OVC040 TEMPO 28032G50KT 1200 +RA +SHRA SCT004 BKN010 BKN015CB
  • 161757Z AUTO 29020G32KT 250V340 6000 SHRA FEW000 SCT004 BKN014 BKN015CB 09/08 Q1000 YLO 28027G40KT 9999 FEW025 BKN032 OVC040 TEMPO 28032G50KT 1200 +RA +SHRA SCT004 BKN010 BKN015CB
  • 161746Z AUTO 28025G42KT 240V340 2700 R21/P3000D +SHRA FEW003 BKN015CB OVC031 09/07 Q0998 YLO 28027G40KT 9999 FEW025 BKN032 OVC040 TEMPO 28032G50KT 1200 +RA +SHRA SCT004 BKN010 BKN015CB
  • 161738Z AUTO 22035G53KT 180V260 9999 -RA SCT023CB SCT031 BKN036 OVC042 17/11 Q0996 WHT 22027G40KT 9999 FEW025 BKN032 OVC040 TEMPO 23032G50KT 1200 +RA +SHRA SCT004 BKN010 BKN015CB
  • 161725Z AUTO 21033G51KT 180V240 9999 BKN035 OVC039 18/10 Q0996 BLU 20027G40KT 9999 FEW025 BKN032 OVC040 TEMPO 21032G50KT 1200 +RA +SHRA SCT004 BKN010 BKN015CB
  • 161715Z AUTO 21035G51KT 180V240 9999 BKN034 OVC039 18/10 Q0996 BLU 20027G40KT 9999 FEW025 BKN032 OVC040 TEMPO 21032G50KT 1200 +RA +SHRA SCT004 BKN010 SCT015CB BKN018
  • 161703Z AUTO 21035G50KT 180V250 9999 BKN036 OVC041 18/10 Q0996 BLU 20027G40KT 9999 FEW025 BKN032 OVC040 TEMPO 21032G50KT 2000 RA SHRA SCT005 BKN010 SCT015CB BKN018
  • 161655Z AUTO 21034G50KT 190V250 9999 OVC038 18/10 Q0996 BLU 20027G40KT 9999 FEW025 BKN032 OVC040 TEMPO 21032G50KT
  • 161625Z AUTO 20030G43KT 180V250 9999 BKN039 OVC044 18/10 Q0996 BLU 20027G40KT 9999 FEW025 BKN032 OVC040 TEMPO 21032G50KT
  • 161555Z AUTO 21034G51KT 180V240 9999 SCT034 OVC039 17/10 Q0997 BLU 20027G40KT 9999 SCT025 OVC030 TEMPO 21032G50KT
  • 161525Z AUTO 21028G42KT 170V240 9999 BKN032 OVC037 17/10 Q0997 BLU 20027G40KT 9999 SCT025 OVC030 TEMPO 21032G50KT

TAF TAF EHEH
Valide du 16 à 18h jusqu'au 18 à 00h UTC


161706Z 1618/1724 24020G30KT 9999 BKN025
TEMPO 1618/1621 3000 RA SHRA SCT012 SCT016CB BKN020
BECMG 1621/1624 24012G25KT SCT020
PROB30
TEMPO 1621/1624 24018G35KT FEW018CB SCT025
TEMPO 1711/1724 25020G35KT 4500 SHRA SCT018CB BKN025
PROB30
TEMPO 1712/1724 26025G40KT 2500 TSRAGS FEW012 SCT017CB BKN022



MET'MAP, la Météo Aéronautique d'un coup d'oeil ! - Copyright ORBIFLY Décembre 2007 - Disclaimer

ORBIFLY MET'MAP TEAM :

Programmation & Développement : Alexandra Zaïnal
Sur une idée originale de : Baudouin d'Aumeries
Assistance à la programmation : Marc-Olivier Méhu
Soutien technique & logistique : Manuel Goepfert

Contact : metmap@orbifly.com




SOURCES & CREDITS :

   NOAA